Hovedside
METAR-TAF:

METAR-TAF

Lufthavner :

Trondheim lufthavn. Værnes

Trondheim, Norge

breddegrad: 63-28N, lengdegrad: 010-56E, høyde over havet: 1 m

Gjeldene værobservasjon

Denne rapporten ble laget for 29 minutter siden, klokken 16:20 UTC
Vind 7 kt fra Vest
Temperatur 18°C
Luftfuktighet 68%
Trykk 1015 hPa
Sikt 10 km eller mer
Brutte skyer i en høyde av 5600 ft
Overskyet i en høyde av 7000 ft

METAR: ENVA 241620Z 26007KT 9999 BKN056 OVC070 18/12 Q1015 NOSIG RMK WIND 670FT VRB02KT

Tid: 18:49 (16:49 UTC)

Varsel

Denne rapporten ble laget for 5 timer og 49 minutter siden, klokken 11:00 UTC
Varsel gyldig fra 24. klokken 12 UTC til 25. klokken 12 UTC
Vind 3 kt fra skiftende retning
Sikt 10 km eller mer
ingen skyer under 1500 m og ingen bygeskyer

TAF: ENVA 241100Z 2412/2512 VRB03KT CAVOK

Værobservasjoner og værvarsel for over 4000 flyplasser (METAR- og TAF-rapporter).

Tilgjengelige stasjoner er representert av de røde og gule prikkene på kartet.

Hold musepekeren over prikken for å se navnet på stasjonen.

Klikk så for å se værobservasjoner og -varsler.

For å forandre kartet kan du klikke på den grønne knappen med svart kryss for å zoome inn, på den grønne knappen med strek for å zoome ut, eller på de grønne pilene for å se tilstøtende kart.


METAR-TAF: